createdAt,value
2023-04-27T00:00:26.229Z,34
2023-04-27T00:01:33.215Z,30
2023-04-27T00:02:40.122Z,33
2023-04-27T00:03:46.960Z,36
2023-04-27T00:04:53.930Z,33
2023-04-27T00:06:00.617Z,36
2023-04-27T00:07:07.596Z,37
2023-04-27T00:08:14.384Z,41
2023-04-27T00:09:21.236Z,42
2023-04-27T00:10:28.842Z,40
2023-04-27T00:11:51.240Z,42
2023-04-27T00:12:58.067Z,46
2023-04-27T00:14:04.966Z,50
2023-04-27T00:15:11.844Z,47
2023-04-27T00:16:18.693Z,47
2023-04-27T00:17:26.350Z,52
2023-04-27T00:18:33.207Z,53
2023-04-27T00:19:40.099Z,50
2023-04-27T00:20:46.987Z,49
2023-04-27T00:21:53.781Z,50
2023-04-27T00:23:00.666Z,49
2023-04-27T00:24:07.483Z,48
2023-04-27T00:25:14.321Z,44
2023-04-27T00:26:21.217Z,49
2023-04-27T00:27:28.046Z,53
2023-04-27T00:28:34.910Z,53
2023-04-27T00:29:41.706Z,50
2023-04-27T00:30:48.548Z,54
2023-04-27T00:31:55.483Z,55
2023-04-27T00:33:02.468Z,57
2023-04-27T00:34:09.207Z,52
2023-04-27T00:35:16.114Z,47
2023-04-27T00:36:22.961Z,51
2023-04-27T00:37:29.809Z,50
2023-04-27T00:38:36.767Z,46
2023-04-27T00:39:43.531Z,49
2023-04-27T00:40:50.354Z,46
2023-04-27T00:42:07.552Z,51
2023-04-27T00:43:14.435Z,48
2023-04-27T00:44:21.236Z,48
2023-04-27T00:45:28.067Z,46
2023-04-27T00:46:34.901Z,49
2023-04-27T00:47:41.785Z,47
2023-04-27T00:48:48.726Z,49
2023-04-27T00:49:55.678Z,48
2023-04-27T00:51:02.454Z,47
2023-04-27T00:52:09.215Z,44
2023-04-27T00:53:15.995Z,45
2023-04-27T00:54:22.754Z,42
2023-04-27T00:55:29.698Z,49
2023-04-27T00:56:36.517Z,46
2023-04-27T00:57:43.379Z,48
2023-04-27T00:58:50.172Z,43
2023-04-27T00:59:57.006Z,47
2023-04-27T01:01:04.134Z,44
2023-04-27T01:02:10.975Z,45
2023-04-27T01:03:17.997Z,44
2023-04-27T01:04:24.725Z,48
2023-04-27T01:05:32.644Z,47
2023-04-27T01:06:38.254Z,50
2023-04-27T01:07:45.205Z,50
2023-04-27T01:08:52.073Z,48
2023-04-27T01:09:58.902Z,47
2023-04-27T01:11:05.737Z,48
2023-04-27T01:12:12.604Z,51
2023-04-27T01:13:19.492Z,51
2023-04-27T01:14:26.384Z,47
2023-04-27T01:15:33.212Z,49
2023-04-27T01:16:40.022Z,47
2023-04-27T01:17:46.909Z,51
2023-04-27T01:18:54.584Z,47
2023-04-27T01:20:01.342Z,47
2023-04-27T01:21:08.563Z,48
2023-04-27T01:22:15.420Z,43
2023-04-27T01:23:22.256Z,46
2023-04-27T01:24:29.044Z,46
2023-04-27T01:25:35.915Z,45
2023-04-27T01:26:42.704Z,45
2023-04-27T01:27:49.516Z,47
2023-04-27T01:28:56.374Z,41
2023-04-27T01:30:03.258Z,46
2023-04-27T01:31:10.361Z,43
2023-04-27T01:32:17.122Z,46
2023-04-27T01:33:23.931Z,48
2023-04-27T01:34:30.776Z,44
2023-04-27T01:35:37.486Z,42
2023-04-27T01:36:44.393Z,46
2023-04-27T01:37:52.068Z,44
2023-04-27T01:38:58.866Z,42
2023-04-27T01:40:05.689Z,45
2023-04-27T01:41:12.583Z,42
2023-04-27T01:42:19.544Z,39
2023-04-27T01:43:26.457Z,41
2023-04-27T01:44:33.341Z,39
2023-04-27T01:45:40.150Z,41
2023-04-27T01:46:46.970Z,36
2023-04-27T01:47:53.761Z,38
2023-04-27T01:49:00.638Z,38
2023-04-27T01:50:07.449Z,40
2023-04-27T01:51:14.247Z,34
2023-04-27T01:52:21.025Z,34
2023-04-27T01:53:27.867Z,35
2023-04-27T01:54:34.701Z,35
2023-04-27T01:55:41.753Z,32
2023-04-27T01:56:48.548Z,35
2023-04-27T01:57:55.333Z,39
2023-04-27T01:59:02.153Z,34
2023-04-27T02:00:08.941Z,33
2023-04-27T02:01:16.099Z,37
2023-04-27T02:02:23.063Z,37
2023-04-27T02:03:29.993Z,37
2023-04-27T02:04:37.005Z,39
2023-04-27T02:05:43.781Z,40
2023-04-27T02:06:50.652Z,38
2023-04-27T02:07:57.466Z,42
2023-04-27T02:09:04.233Z,38
2023-04-27T02:10:11.048Z,40
2023-04-27T02:11:17.887Z,38
2023-04-27T02:12:24.764Z,37
2023-04-27T02:13:31.691Z,39
2023-04-27T02:14:38.452Z,36
2023-04-27T02:15:45.265Z,40
2023-04-27T02:16:52.107Z,40
2023-04-27T02:17:58.949Z,39
2023-04-27T02:19:05.754Z,39
2023-04-27T02:20:12.569Z,39
2023-04-27T02:21:19.455Z,41
2023-04-27T02:22:26.241Z,41
2023-04-27T02:23:33.009Z,36
2023-04-27T02:24:39.825Z,39
2023-04-27T02:25:46.588Z,34
2023-04-27T02:26:53.345Z,30
2023-04-27T02:28:00.172Z,31
2023-04-27T02:29:07.065Z,32
2023-04-27T02:30:13.920Z,28
2023-04-27T02:31:20.796Z,29
2023-04-27T02:32:27.528Z,32
2023-04-27T02:33:34.295Z,28
2023-04-27T02:34:41.066Z,30
2023-04-27T02:35:48.010Z,28
2023-04-27T02:36:54.789Z,28
2023-04-27T02:38:01.708Z,29
2023-04-27T02:39:08.501Z,29
2023-04-27T02:40:15.329Z,29
2023-04-27T02:41:22.187Z,29
2023-04-27T02:42:28.958Z,28
2023-04-27T02:43:35.784Z,30
2023-04-27T02:44:42.557Z,30
2023-04-27T02:45:49.324Z,30
2023-04-27T02:46:56.143Z,31
2023-04-27T02:48:02.893Z,30
2023-04-27T02:49:09.693Z,26
2023-04-27T02:50:16.482Z,29
2023-04-27T02:51:23.232Z,27
2023-04-27T02:52:30.321Z,27
2023-04-27T02:53:37.205Z,28
2023-04-27T02:54:43.960Z,26
2023-04-27T02:55:50.746Z,29
2023-04-27T02:56:57.524Z,27
2023-04-27T02:58:04.329Z,30
2023-04-27T02:59:11.136Z,30
2023-04-27T03:00:18.773Z,26
2023-04-27T03:01:25.670Z,26
2023-04-27T03:02:32.540Z,28
2023-04-27T03:03:39.460Z,28
2023-04-27T03:04:48.946Z,29
2023-04-27T03:05:55.727Z,27
2023-04-27T03:07:02.487Z,29
2023-04-27T03:08:09.440Z,30
2023-04-27T03:09:16.458Z,28
2023-04-27T03:10:22.804Z,30
2023-04-27T03:11:29.706Z,29
2023-04-27T03:12:36.746Z,28
2023-04-27T03:13:43.524Z,28
2023-04-27T03:14:50.293Z,27
2023-04-27T03:15:57.116Z,29
2023-04-27T03:17:03.947Z,30
2023-04-27T03:18:10.746Z,30
2023-04-27T03:19:17.506Z,31
2023-04-27T03:20:24.342Z,34
2023-04-27T03:21:31.090Z,36
2023-04-27T03:22:37.885Z,45
2023-04-27T03:23:44.720Z,43
2023-04-27T03:24:51.470Z,41
2023-04-27T03:25:58.216Z,42
2023-04-27T03:27:10.150Z,39
2023-04-27T03:28:16.911Z,44
2023-04-27T03:29:23.722Z,42
2023-04-27T03:30:30.518Z,46
2023-04-27T03:31:37.428Z,45
2023-04-27T03:32:46.309Z,48
2023-04-27T03:33:50.897Z,49
2023-04-27T03:34:57.642Z,47
2023-04-27T03:36:04.463Z,47
2023-04-27T03:37:11.517Z,58
2023-04-27T03:38:18.326Z,49
2023-04-27T03:39:25.076Z,49
2023-04-27T03:40:31.798Z,50
2023-04-27T03:41:38.630Z,51
2023-04-27T03:42:45.642Z,53
2023-04-27T03:43:52.413Z,46
2023-04-27T03:44:59.191Z,47
2023-04-27T03:46:06.915Z,48
2023-04-27T03:47:13.641Z,45
2023-04-27T03:48:20.488Z,49
2023-04-27T03:49:27.309Z,49
2023-04-27T03:50:34.017Z,46
2023-04-27T03:51:40.797Z,45
2023-04-27T03:52:47.643Z,45
2023-04-27T03:53:54.404Z,43
2023-04-27T03:55:01.310Z,42
2023-04-27T03:56:08.338Z,40
2023-04-27T03:57:15.316Z,39
2023-04-27T03:58:22.104Z,44
2023-04-27T03:59:28.880Z,38
2023-04-27T04:00:35.902Z,42
2023-04-27T04:01:42.735Z,39
2023-04-27T04:02:49.704Z,38
2023-04-27T04:03:56.286Z,45
2023-04-27T04:05:03.054Z,43
2023-04-27T04:06:09.995Z,42
2023-04-27T04:07:16.805Z,39
2023-04-27T04:08:23.614Z,43
2023-04-27T04:09:30.438Z,39
2023-04-27T04:10:37.246Z,50
2023-04-27T04:11:44.345Z,48
2023-04-27T04:12:51.093Z,56
2023-04-27T04:13:57.944Z,63
2023-04-27T04:15:04.856Z,64
2023-04-27T04:16:11.824Z,63
2023-04-27T04:17:18.638Z,63
2023-04-27T04:18:25.421Z,56
2023-04-27T04:19:32.144Z,59
2023-04-27T04:20:38.957Z,57
2023-04-27T04:21:45.730Z,55
2023-04-27T04:22:52.567Z,53
2023-04-27T04:23:59.493Z,56
2023-04-27T04:25:06.504Z,54
2023-04-27T04:26:13.487Z,53
2023-04-27T04:27:20.253Z,56
2023-04-27T04:28:26.999Z,56
2023-04-27T04:29:33.831Z,54
2023-04-27T04:30:40.617Z,62
2023-04-27T04:31:47.475Z,57
2023-04-27T04:32:54.203Z,55
2023-04-27T04:34:00.995Z,57
2023-04-27T04:35:07.916Z,56
2023-04-27T04:36:14.754Z,54
2023-04-27T04:37:21.526Z,50
2023-04-27T04:38:28.310Z,47
2023-04-27T04:39:35.075Z,50
2023-04-27T04:40:43.186Z,52
2023-04-27T04:41:48.705Z,53
2023-04-27T04:42:55.425Z,51
2023-04-27T04:44:02.217Z,46
2023-04-27T04:45:08.976Z,44
2023-04-27T04:46:15.856Z,44
2023-04-27T04:47:22.664Z,45
2023-04-27T04:48:29.409Z,40
2023-04-27T04:49:36.310Z,41
2023-04-27T04:50:43.059Z,46
2023-04-27T04:51:49.856Z,44
2023-04-27T04:52:56.799Z,47
2023-04-27T04:54:03.563Z,41
2023-04-27T04:55:10.469Z,45
2023-04-27T04:56:17.218Z,45
2023-04-27T04:57:24.205Z,50
2023-04-27T04:58:31.033Z,45
2023-04-27T04:59:37.729Z,42
2023-04-27T05:00:44.493Z,44
2023-04-27T05:01:51.282Z,43
2023-04-27T05:02:58.102Z,41
2023-04-27T05:04:05.055Z,46
2023-04-27T05:05:11.671Z,47
2023-04-27T05:06:18.496Z,44
2023-04-27T05:07:25.296Z,43
2023-04-27T05:08:32.114Z,42
2023-04-27T05:09:38.992Z,42
2023-04-27T05:10:45.738Z,38
2023-04-27T05:11:55.607Z,39
2023-04-27T05:13:02.534Z,40
2023-04-27T05:14:09.305Z,38
2023-04-27T05:15:16.108Z,42
2023-04-27T05:16:22.917Z,43
2023-04-27T05:17:29.693Z,51
2023-04-27T05:18:36.441Z,76
2023-04-27T05:19:43.302Z,87
2023-04-27T05:20:50.079Z,106
2023-04-27T05:21:56.970Z,99
2023-04-27T05:23:03.791Z,98
2023-04-27T05:24:10.543Z,114
2023-04-27T05:25:17.366Z,104
2023-04-27T05:26:24.118Z,100
2023-04-27T05:27:30.898Z,76
2023-04-27T05:28:37.717Z,74
2023-04-27T05:29:44.445Z,69
2023-04-27T05:30:51.253Z,64
2023-04-27T05:31:58.035Z,82
2023-04-27T05:33:05.034Z,73
2023-04-27T05:34:11.769Z,64
2023-04-27T05:35:18.611Z,66
2023-04-27T05:36:25.327Z,59
2023-04-27T05:37:32.111Z,50
2023-04-27T05:38:38.955Z,44
2023-04-27T05:39:45.723Z,55
2023-04-27T05:40:53.464Z,49
2023-04-27T05:41:59.297Z,45
2023-04-27T05:43:06.131Z,47
2023-04-27T05:44:13.075Z,51
2023-04-27T05:45:19.820Z,47
2023-04-27T05:46:26.734Z,47
2023-04-27T05:47:33.450Z,43
2023-04-27T05:48:40.236Z,46
2023-04-27T05:49:47.165Z,48
2023-04-27T05:50:54.163Z,44
2023-04-27T05:52:04.675Z,40
2023-04-27T05:53:11.441Z,45
2023-04-27T05:54:18.212Z,40
2023-04-27T05:55:24.952Z,34
2023-04-27T05:56:32.936Z,37
2023-04-27T05:57:40.420Z,28
2023-04-27T05:58:46.833Z,31
2023-04-27T05:59:54.553Z,37
2023-04-27T06:01:01.297Z,33
2023-04-27T06:02:08.076Z,29
2023-04-27T06:03:15.145Z,28
2023-04-27T06:04:21.907Z,28
2023-04-27T06:05:28.557Z,26
2023-04-27T06:06:38.298Z,25
2023-04-27T06:07:46.089Z,26
2023-04-27T06:08:52.906Z,31
2023-04-27T06:09:59.842Z,28
2023-04-27T06:11:06.726Z,25
2023-04-27T06:12:13.617Z,32
2023-04-27T06:13:20.430Z,28
2023-04-27T06:14:27.274Z,25
2023-04-27T06:15:34.333Z,31
2023-04-27T06:16:41.209Z,27
2023-04-27T06:17:48.353Z,24
2023-04-27T06:18:56.142Z,25
2023-04-27T06:20:02.975Z,25
2023-04-27T06:21:12.975Z,21
2023-04-27T06:22:19.722Z,20
2023-04-27T06:23:26.714Z,18
2023-04-27T06:24:33.610Z,16
2023-04-27T06:25:40.471Z,16
2023-04-27T06:26:47.165Z,15
2023-04-27T06:27:53.960Z,19
2023-04-27T06:29:00.766Z,16
2023-04-27T06:30:07.562Z,14
2023-04-27T06:31:14.809Z,16
2023-04-27T06:32:21.581Z,15
2023-04-27T06:33:28.380Z,16
2023-04-27T06:34:35.326Z,17
2023-04-27T06:35:42.149Z,19
2023-04-27T06:36:49.067Z,17
2023-04-27T06:37:57.497Z,14
2023-04-27T06:39:04.315Z,17
2023-04-27T06:40:11.099Z,17
2023-04-27T06:41:17.976Z,19
2023-04-27T06:42:24.759Z,16
2023-04-27T06:43:31.516Z,16
2023-04-27T06:44:38.320Z,14
2023-04-27T06:45:45.283Z,17
2023-04-27T06:46:52.312Z,14
2023-04-27T06:47:59.023Z,14
2023-04-27T06:49:05.847Z,16
2023-04-27T06:50:12.612Z,15
2023-04-27T06:51:19.418Z,15
2023-04-27T06:52:26.332Z,15
2023-04-27T06:53:33.116Z,15
2023-04-27T06:54:40.053Z,16
2023-04-27T06:55:48.358Z,14
2023-04-27T06:56:53.786Z,13
2023-04-27T06:58:00.828Z,16
2023-04-27T06:59:07.684Z,14
2023-04-27T07:00:14.470Z,13
2023-04-27T07:01:21.572Z,15
2023-04-27T07:02:28.450Z,15
2023-04-27T07:03:35.283Z,15
2023-04-27T07:04:42.209Z,14
2023-04-27T07:05:48.984Z,12
2023-04-27T07:06:55.797Z,14
2023-04-27T07:08:06.119Z,13
2023-04-27T07:09:16.593Z,15
2023-04-27T07:10:16.284Z,13
2023-04-27T07:11:23.173Z,13
2023-04-27T07:12:29.988Z,11
2023-04-27T07:13:36.812Z,11
2023-04-27T07:14:43.758Z,12
2023-04-27T07:15:51.580Z,11
2023-04-27T07:16:58.418Z,10
2023-04-27T07:18:05.357Z,11
2023-04-27T07:19:12.516Z,10
2023-04-27T07:20:19.179Z,12
2023-04-27T07:21:26.164Z,15
2023-04-27T07:22:32.970Z,12
2023-04-27T07:23:41.396Z,10
2023-04-27T07:24:48.169Z,10
2023-04-27T07:25:55.075Z,12
2023-04-27T07:27:02.055Z,12
2023-04-27T07:28:09.041Z,12
2023-04-27T07:29:26.064Z,9
2023-04-27T07:30:22.651Z,11
2023-04-27T07:31:29.538Z,10
2023-04-27T07:32:36.519Z,8
2023-04-27T07:33:43.316Z,9
2023-04-27T07:34:53.863Z,10
2023-04-27T07:35:59.626Z,10
2023-04-27T07:37:06.498Z,11
2023-04-27T07:38:14.835Z,11
2023-04-27T07:39:25.152Z,10
2023-04-27T07:40:31.996Z,9
2023-04-27T07:41:38.882Z,9
2023-04-27T07:42:45.782Z,9
2023-04-27T07:43:52.640Z,9
2023-04-27T07:44:59.390Z,9
2023-04-27T07:46:06.251Z,9
2023-04-27T07:47:13.017Z,10
2023-04-27T07:48:19.858Z,9
2023-04-27T07:49:26.629Z,10
2023-04-27T07:50:33.353Z,10
2023-04-27T07:51:40.156Z,9
2023-04-27T07:52:47.055Z,10
2023-04-27T07:53:54.043Z,9
2023-04-27T07:55:00.908Z,11
2023-04-27T07:56:07.916Z,10
2023-04-27T07:57:14.830Z,10
2023-04-27T07:58:21.715Z,8
2023-04-27T07:59:28.577Z,10
2023-04-27T08:00:35.394Z,10
2023-04-27T08:01:42.308Z,12
2023-04-27T08:02:49.213Z,11
2023-04-27T08:03:56.244Z,8
2023-04-27T08:05:03.174Z,10
2023-04-27T08:06:10.191Z,9
2023-04-27T08:07:17.446Z,8
2023-04-27T08:08:23.418Z,9
2023-04-27T08:09:30.219Z,9
2023-04-27T08:10:37.127Z,10
2023-04-27T08:11:43.948Z,10
2023-04-27T08:12:50.742Z,10
2023-04-27T08:13:57.520Z,8
2023-04-27T08:15:04.355Z,10
2023-04-27T08:16:11.531Z,9
2023-04-27T08:17:18.321Z,9
2023-04-27T08:18:25.234Z,9
2023-04-27T08:19:32.028Z,7
2023-04-27T08:20:38.845Z,9
2023-04-27T08:21:45.765Z,10
2023-04-27T08:22:52.588Z,11
2023-04-27T08:23:59.523Z,9
2023-04-27T08:25:06.434Z,9
2023-04-27T08:26:13.591Z,9
2023-04-27T08:27:20.457Z,9
2023-04-27T08:28:27.462Z,7
2023-04-27T08:29:34.482Z,7
2023-04-27T08:30:41.104Z,7
2023-04-27T08:31:48.011Z,8
2023-04-27T08:32:54.935Z,8
2023-04-27T08:34:01.635Z,8
2023-04-27T08:35:09.828Z,7
2023-04-27T08:36:16.703Z,7
2023-04-27T08:37:23.471Z,10
2023-04-27T08:38:30.729Z,8
2023-04-27T08:39:37.673Z,10
2023-04-27T08:40:44.534Z,8
2023-04-27T08:41:51.423Z,10
2023-04-27T08:42:58.243Z,10
2023-04-27T08:44:05.097Z,9
2023-04-27T08:45:12.005Z,11
2023-04-27T08:46:18.801Z,11
2023-04-27T08:47:34.963Z,9
2023-04-27T08:48:32.555Z,9
2023-04-27T08:49:39.301Z,8
2023-04-27T08:50:46.110Z,9
2023-04-27T08:51:53.059Z,8
2023-04-27T08:52:59.835Z,8
2023-04-27T08:54:07.246Z,8
2023-04-27T08:55:16.374Z,10
2023-04-27T08:56:22.197Z,8
2023-04-27T08:57:29.185Z,8
2023-04-27T08:58:36.022Z,8
2023-04-27T08:59:42.910Z,8
2023-04-27T09:00:50.793Z,10
2023-04-27T09:01:56.569Z,10
2023-04-27T09:03:03.535Z,10
2023-04-27T09:04:10.611Z,9
2023-04-27T09:05:17.311Z,9
2023-04-27T09:06:24.074Z,7
2023-04-27T09:07:33.761Z,9
2023-04-27T09:08:40.574Z,9
2023-04-27T09:09:47.998Z,9
2023-04-27T09:10:54.958Z,9
2023-04-27T09:12:01.804Z,10
2023-04-27T09:13:17.579Z,8
2023-04-27T09:14:24.406Z,9
2023-04-27T09:15:31.214Z,11
2023-04-27T09:16:38.099Z,10
2023-04-27T09:17:44.855Z,11
2023-04-27T09:18:51.932Z,13
2023-04-27T09:19:58.728Z,8
2023-04-27T09:21:08.867Z,11
2023-04-27T09:22:16.558Z,10
2023-04-27T09:23:23.412Z,8
2023-04-27T09:24:32.863Z,8
2023-04-27T09:25:39.598Z,9
2023-04-27T09:26:46.359Z,8
2023-04-27T09:27:53.250Z,7
2023-04-27T09:29:00.239Z,7
2023-04-27T09:30:07.114Z,11
2023-04-27T09:31:17.442Z,43
2023-04-27T09:32:24.336Z,12
2023-04-27T09:33:31.202Z,8
2023-04-27T09:34:37.994Z,9
2023-04-27T09:35:45.114Z,8
2023-04-27T09:36:51.923Z,10
2023-04-27T09:37:58.805Z,9
2023-04-27T09:39:05.899Z,9
2023-04-27T09:40:13.553Z,7
2023-04-27T09:41:20.466Z,9
2023-04-27T09:42:27.246Z,8
2023-04-27T09:43:34.902Z,8
2023-04-27T09:44:42.614Z,9
2023-04-27T09:45:50.324Z,113
2023-04-27T09:46:57.084Z,7
2023-04-27T09:48:03.978Z,8
2023-04-27T09:49:10.953Z,19
2023-04-27T09:50:17.879Z,20
2023-04-27T09:51:27.569Z,12
2023-04-27T09:52:34.393Z,8
2023-04-27T09:53:41.215Z,9
2023-04-27T09:54:48.039Z,26
2023-04-27T09:55:57.046Z,18
2023-04-27T09:57:10.877Z,22
2023-04-27T09:58:23.677Z,24
2023-04-27T09:59:38.745Z,26
2023-04-27T10:00:53.517Z,12
2023-04-27T10:02:23.278Z,10
2023-04-27T10:03:26.334Z,11
2023-04-27T10:04:43.639Z,8
2023-04-27T10:06:00.700Z,6
2023-04-27T10:07:12.661Z,8
2023-04-27T10:08:19.524Z,7
2023-04-27T10:09:27.394Z,7
2023-04-27T10:10:37.167Z,9
2023-04-27T10:11:49.838Z,24
2023-04-27T10:12:56.735Z,23
2023-04-27T10:14:05.674Z,18
2023-04-27T10:15:12.656Z,18
2023-04-27T10:17:26.235Z,12
2023-04-27T10:18:33.068Z,11
2023-04-27T10:19:40.012Z,9
2023-04-27T10:20:55.945Z,12
2023-04-27T10:22:13.267Z,8
2023-04-27T10:23:20.051Z,9
2023-04-27T10:24:29.860Z,7
2023-04-27T10:25:39.447Z,8
2023-04-27T10:26:46.577Z,9
2023-04-27T10:27:53.414Z,7
2023-04-27T10:29:03.853Z,9
2023-04-27T10:30:10.734Z,8
2023-04-27T10:31:18.605Z,10
2023-04-27T10:32:30.531Z,8
2023-04-27T10:33:37.278Z,10
2023-04-27T10:34:48.559Z,12
2023-04-27T10:35:58.314Z,13
2023-04-27T10:37:06.125Z,8
2023-04-27T10:38:12.912Z,8
2023-04-27T10:39:27.590Z,7
2023-04-27T10:40:29.425Z,9
2023-04-27T10:41:37.107Z,7
2023-04-27T10:42:43.954Z,7
2023-04-27T10:43:50.796Z,8
2023-04-27T10:44:58.500Z,9
2023-04-27T10:46:05.349Z,10
2023-04-27T10:47:12.160Z,8
2023-04-27T10:48:21.885Z,7
2023-04-27T10:49:26.141Z,8
2023-04-27T10:50:32.938Z,7
2023-04-27T10:51:39.752Z,7
2023-04-27T10:52:48.157Z,7
2023-04-27T10:53:55.117Z,8
2023-04-27T10:55:02.118Z,10
2023-04-27T10:56:19.334Z,7
2023-04-27T10:57:29.156Z,6
2023-04-27T10:58:47.893Z,8
2023-04-27T10:59:44.849Z,8
2023-04-27T11:00:52.192Z,8
2023-04-27T11:02:00.409Z,7
2023-04-27T11:03:07.409Z,8
2023-04-27T11:04:20.439Z,9
2023-04-27T11:05:27.247Z,9
2023-04-27T11:06:34.912Z,10
2023-04-27T11:07:45.136Z,9
2023-04-27T11:08:52.863Z,8
2023-04-27T11:09:59.622Z,9
2023-04-27T11:11:08.330Z,7
2023-04-27T11:12:17.850Z,11
2023-04-27T11:13:24.692Z,9
2023-04-27T11:14:31.621Z,9
2023-04-27T11:15:38.453Z,8
2023-04-27T11:16:52.186Z,7
2023-04-27T11:17:59.278Z,9
2023-04-27T11:19:08.911Z,8
2023-04-27T11:20:15.786Z,8
2023-04-27T11:21:28.662Z,9
2023-04-27T11:22:36.584Z,9
2023-04-27T11:23:46.069Z,7
2023-04-27T11:24:52.917Z,7
2023-04-27T11:25:59.691Z,6
2023-04-27T11:27:11.640Z,10
2023-04-27T11:28:19.325Z,8
2023-04-27T11:29:26.253Z,6
2023-04-27T11:30:33.149Z,6
2023-04-27T11:31:39.952Z,6
2023-04-27T11:32:50.350Z,6
2023-04-27T11:33:57.089Z,6
2023-04-27T11:35:05.727Z,7
2023-04-27T11:36:13.359Z,7
2023-04-27T11:37:21.000Z,7
2023-04-27T11:38:28.753Z,9
2023-04-27T11:39:35.596Z,8
2023-04-27T11:40:43.351Z,7
2023-04-27T11:41:50.158Z,6
2023-04-27T11:42:57.033Z,8
2023-04-27T11:44:07.075Z,7
2023-04-27T11:45:14.055Z,8
2023-04-27T11:46:20.973Z,8
2023-04-27T11:47:27.952Z,8
2023-04-27T11:48:34.618Z,9
2023-04-27T11:49:42.230Z,7
2023-04-27T11:50:49.121Z,7
2023-04-27T11:51:56.824Z,9
2023-04-27T11:53:04.566Z,9
2023-04-27T11:54:13.541Z,10
2023-04-27T11:55:20.151Z,8
2023-04-27T11:56:27.268Z,10
2023-04-27T11:57:44.362Z,8
2023-04-27T11:58:51.162Z,8
2023-04-27T11:59:57.938Z,8
2023-04-27T12:01:04.790Z,9
2023-04-27T12:02:14.867Z,7
2023-04-27T12:03:32.731Z,8
2023-04-27T12:04:40.663Z,9
2023-04-27T12:05:48.331Z,9
2023-04-27T12:06:58.664Z,8
2023-04-27T12:08:05.526Z,6
2023-04-27T12:09:12.343Z,7
2023-04-27T12:10:20.422Z,8
2023-04-27T12:11:27.320Z,9
2023-04-27T12:12:34.139Z,7
2023-04-27T12:13:40.964Z,7
2023-04-27T12:14:47.753Z,8
2023-04-27T12:15:54.583Z,7
2023-04-27T12:17:03.894Z,8
2023-04-27T12:18:10.729Z,8
2023-04-27T12:19:17.516Z,7
2023-04-27T12:20:24.312Z,6
2023-04-27T12:21:31.148Z,8
2023-04-27T12:22:37.954Z,7
2023-04-27T12:23:44.851Z,7
2023-04-27T12:24:52.608Z,7
2023-04-27T12:25:59.457Z,8
2023-04-27T12:27:16.419Z,7
2023-04-27T12:28:24.792Z,7
2023-04-27T12:29:31.691Z,6
2023-04-27T12:30:41.424Z,8
2023-04-27T12:31:48.292Z,6
2023-04-27T12:32:56.070Z,6
2023-04-27T12:34:02.869Z,6
2023-04-27T12:35:10.635Z,7
2023-04-27T12:36:17.649Z,7
2023-04-27T12:37:26.784Z,7
2023-04-27T12:38:32.944Z,6
2023-04-27T12:39:41.975Z,8
2023-04-27T12:40:49.938Z,6
2023-04-27T12:41:57.893Z,6
2023-04-27T12:43:04.772Z,9
2023-04-27T12:44:11.825Z,6
2023-04-27T12:45:18.514Z,6
2023-04-27T12:46:25.626Z,6
2023-04-27T12:47:50.165Z,6
2023-04-27T12:48:40.230Z,6
2023-04-27T12:49:49.368Z,8
2023-04-27T12:50:56.247Z,7
2023-04-27T12:52:04.048Z,7
2023-04-27T12:53:10.896Z,5
2023-04-27T12:54:18.753Z,8
2023-04-27T12:55:33.489Z,8
2023-04-27T12:56:32.785Z,7
2023-04-27T12:57:40.527Z,6
2023-04-27T12:58:48.414Z,6
2023-04-27T12:59:55.211Z,6
2023-04-27T13:01:05.482Z,5
2023-04-27T13:02:12.295Z,6
2023-04-27T13:03:20.187Z,6
2023-04-27T13:04:27.012Z,6
2023-04-27T13:05:33.749Z,7
2023-04-27T13:06:41.386Z,7
2023-04-27T13:07:49.032Z,6
2023-04-27T13:08:56.473Z,9
2023-04-27T13:10:05.001Z,7
2023-04-27T13:11:12.834Z,5
2023-04-27T13:12:20.956Z,5
2023-04-27T13:13:29.268Z,6
2023-04-27T13:14:36.243Z,5
2023-04-27T13:15:43.199Z,7
2023-04-27T13:16:50.015Z,6
2023-04-27T13:18:00.017Z,7
2023-04-27T13:19:07.838Z,7
2023-04-27T13:20:14.697Z,7
2023-04-27T13:21:21.653Z,7
2023-04-27T13:22:28.385Z,7
2023-04-27T13:23:35.130Z,9
2023-04-27T13:24:42.047Z,7
2023-04-27T13:25:48.807Z,9
2023-04-27T13:26:56.668Z,13
2023-04-27T13:28:03.652Z,7
2023-04-27T13:29:10.493Z,10
2023-04-27T13:30:17.270Z,6
2023-04-27T13:31:25.095Z,6
2023-04-27T13:32:32.905Z,6
2023-04-27T13:33:39.695Z,7
2023-04-27T13:34:48.369Z,6
2023-04-27T13:35:55.274Z,14
2023-04-27T13:37:02.962Z,10
2023-04-27T13:38:09.741Z,8
2023-04-27T13:39:16.611Z,8
2023-04-27T13:40:23.544Z,8
2023-04-27T13:41:30.549Z,10
2023-04-27T13:42:37.377Z,8
2023-04-27T13:43:44.219Z,9
2023-04-27T13:44:51.022Z,10
2023-04-27T13:46:00.938Z,13
2023-04-27T13:47:06.074Z,109
2023-04-27T13:48:13.886Z,51
2023-04-27T13:49:20.623Z,52
2023-04-27T13:50:27.478Z,15
2023-04-27T13:51:35.836Z,7
2023-04-27T13:52:41.266Z,51
2023-04-27T13:53:48.049Z,9
2023-04-27T13:54:54.967Z,9
2023-04-27T13:56:01.863Z,32
2023-04-27T13:57:09.743Z,94
2023-04-27T13:58:19.650Z,95
2023-04-27T13:59:26.535Z,100
2023-04-27T14:00:36.439Z,62
2023-04-27T14:01:43.378Z,192
2023-04-27T14:02:50.404Z,19
2023-04-27T14:03:57.733Z,15
2023-04-27T14:05:04.536Z,62
2023-04-27T14:06:11.433Z,108
2023-04-27T14:07:18.456Z,44
2023-04-27T14:08:25.318Z,50
2023-04-27T14:09:32.193Z,66
2023-04-27T14:10:39.124Z,34
2023-04-27T14:11:56.038Z,38
2023-04-27T14:12:54.668Z,10
2023-04-27T14:14:01.638Z,26
2023-04-27T14:15:08.769Z,15
2023-04-27T14:16:15.638Z,8
2023-04-27T14:17:22.885Z,12
2023-04-27T14:18:32.613Z,13
2023-04-27T14:19:39.591Z,10
2023-04-27T14:20:46.378Z,19
2023-04-27T14:21:53.202Z,14
2023-04-27T14:23:00.175Z,16
2023-04-27T14:24:07.050Z,13
2023-04-27T14:25:15.043Z,8
2023-04-27T14:26:21.968Z,11
2023-04-27T14:27:29.757Z,11
2023-04-27T14:28:37.500Z,10
2023-04-27T14:29:44.505Z,8
2023-04-27T14:30:51.358Z,8
2023-04-27T14:31:58.336Z,11
2023-04-27T14:33:05.147Z,10
2023-04-27T14:34:12.063Z,9
2023-04-27T14:35:21.102Z,8
2023-04-27T14:36:28.101Z,10
2023-04-27T14:37:36.520Z,8
2023-04-27T14:38:43.313Z,9
2023-04-27T14:39:52.121Z,7
2023-04-27T14:40:59.435Z,8
2023-04-27T14:42:07.375Z,8
2023-04-27T14:43:14.237Z,8
2023-04-27T14:44:23.684Z,8
2023-04-27T14:46:37.834Z,8
2023-04-27T14:47:44.802Z,8
2023-04-27T14:48:51.609Z,7
2023-04-27T14:49:58.436Z,6
2023-04-27T14:51:06.520Z,7
2023-04-27T14:52:13.289Z,7
2023-04-27T14:53:20.153Z,10
2023-04-27T14:54:27.000Z,7
2023-04-27T14:55:33.971Z,7
2023-04-27T14:56:40.746Z,9
2023-04-27T14:57:47.659Z,8
2023-04-27T14:58:54.544Z,9
2023-04-27T15:00:01.345Z,7
2023-04-27T15:01:08.631Z,7
2023-04-27T15:02:16.382Z,8
2023-04-27T15:03:23.263Z,11
2023-04-27T15:04:30.021Z,7
2023-04-27T15:05:36.821Z,8
2023-04-27T15:06:43.729Z,8
2023-04-27T15:07:51.469Z,8
2023-04-27T15:08:58.224Z,10
2023-04-27T15:10:05.255Z,7
2023-04-27T15:11:12.287Z,6
2023-04-27T15:12:19.191Z,8
2023-04-27T15:13:26.105Z,9
2023-04-27T15:14:32.949Z,7
2023-04-27T15:15:39.872Z,7
2023-04-27T15:16:50.475Z,13
2023-04-27T15:17:57.312Z,11
2023-04-27T15:19:04.200Z,10
2023-04-27T15:20:11.088Z,10
2023-04-27T15:21:18.129Z,10
2023-04-27T15:22:25.026Z,8
2023-04-27T15:23:31.888Z,9
2023-04-27T15:24:40.269Z,13
2023-04-27T15:25:47.151Z,16
2023-04-27T15:26:54.046Z,31
2023-04-27T15:28:00.978Z,64
2023-04-27T15:29:09.663Z,228
2023-04-27T15:30:17.540Z,183
2023-04-27T15:31:24.313Z,52
2023-04-27T15:32:32.112Z,94
2023-04-27T15:33:38.943Z,105
2023-04-27T15:34:48.106Z,113
2023-04-27T15:35:55.014Z,52
2023-04-27T15:37:02.121Z,50
2023-04-27T15:38:09.128Z,72
2023-04-27T15:39:16.106Z,122
2023-04-27T15:40:22.809Z,79
2023-04-27T15:41:29.911Z,42
2023-04-27T15:42:37.717Z,12
2023-04-27T15:43:48.071Z,11
2023-04-27T15:44:54.916Z,10
2023-04-27T15:46:01.758Z,8
2023-04-27T15:47:11.210Z,11
2023-04-27T15:48:18.092Z,21
2023-04-27T15:49:25.832Z,13
2023-04-27T15:50:35.008Z,13
2023-04-27T15:51:41.993Z,13
2023-04-27T15:52:48.820Z,10
2023-04-27T15:53:55.706Z,10
2023-04-27T15:55:02.591Z,8
2023-04-27T15:56:09.631Z,8
2023-04-27T15:57:18.318Z,8
2023-04-27T15:58:25.274Z,8
2023-04-27T15:59:32.118Z,8
2023-04-27T16:00:38.981Z,9
2023-04-27T16:01:45.855Z,10
2023-04-27T16:02:52.906Z,7
2023-04-27T16:03:59.603Z,8
2023-04-27T16:05:06.416Z,10
2023-04-27T16:06:13.207Z,12
2023-04-27T16:07:20.035Z,9
2023-04-27T16:08:26.863Z,8
2023-04-27T16:09:33.834Z,9
2023-04-27T16:10:40.669Z,9
2023-04-27T16:11:47.523Z,10
2023-04-27T16:12:55.507Z,9
2023-04-27T16:14:03.258Z,7
2023-04-27T16:15:11.643Z,6